sensor_id;sensor_type;location;lat;lon;timestamp;temperature;humidity
24162;DHT22;12318;51.262;7.066;2022-08-18T00:04:34;17.90;99.90
24162;DHT22;12318;51.262;7.066;2022-08-18T00:07:16;18.00;99.90
24162;DHT22;12318;51.262;7.066;2022-08-18T00:09:42;18.00;99.90
24162;DHT22;12318;51.262;7.066;2022-08-18T00:12:33;18.00;99.90
24162;DHT22;12318;51.262;7.066;2022-08-18T00:14:59;18.10;99.90
24162;DHT22;12318;51.262;7.066;2022-08-18T00:17:31;18.10;99.90
24162;DHT22;12318;51.262;7.066;2022-08-18T00:19:57;18.10;99.90
24162;DHT22;12318;51.262;7.066;2022-08-18T00:22:23;18.10;99.90
24162;DHT22;12318;51.262;7.066;2022-08-18T00:24:51;18.10;99.90
24162;DHT22;12318;51.262;7.066;2022-08-18T00:27:26;18.00;99.90
24162;DHT22;12318;51.262;7.066;2022-08-18T00:29:54;18.00;99.90
24162;DHT22;12318;51.262;7.066;2022-08-18T00:32:25;17.90;99.90
24162;DHT22;12318;51.262;7.066;2022-08-18T00:34:52;17.60;99.90
24162;DHT22;12318;51.262;7.066;2022-08-18T00:37:19;17.40;99.90
24162;DHT22;12318;51.262;7.066;2022-08-18T00:39:45;17.30;99.90
24162;DHT22;12318;51.262;7.066;2022-08-18T00:42:31;17.20;99.90
24162;DHT22;12318;51.262;7.066;2022-08-18T00:45:01;17.20;99.90
24162;DHT22;12318;51.262;7.066;2022-08-18T00:47:27;17.10;99.90
24162;DHT22;12318;51.262;7.066;2022-08-18T00:49:54;17.00;99.90
24162;DHT22;12318;51.262;7.066;2022-08-18T00:52:21;17.10;99.90
24162;DHT22;12318;51.262;7.066;2022-08-18T00:54:48;17.10;99.90
24162;DHT22;12318;51.262;7.066;2022-08-18T00:57:15;17.20;99.90
24162;DHT22;12318;51.262;7.066;2022-08-18T01:02:18;17.20;99.90
24162;DHT22;12318;51.262;7.066;2022-08-18T01:07:39;17.10;99.90
24162;DHT22;12318;51.262;7.066;2022-08-18T01:10:09;17.10;99.90
24162;DHT22;12318;51.262;7.066;2022-08-18T01:13:00;17.10;99.90
24162;DHT22;12318;51.262;7.066;2022-08-18T01:15:26;17.10;99.90
24162;DHT22;12318;51.262;7.066;2022-08-18T01:17:54;17.20;99.90
24162;DHT22;12318;51.262;7.066;2022-08-18T01:23:44;17.20;99.90
24162;DHT22;12318;51.262;7.066;2022-08-18T01:28:46;17.20;99.90
24162;DHT22;12318;51.262;7.066;2022-08-18T01:31:30;17.30;99.90
24162;DHT22;12318;51.262;7.066;2022-08-18T01:33:58;17.40;99.90
24162;DHT22;12318;51.262;7.066;2022-08-18T01:36:26;17.30;99.90
24162;DHT22;12318;51.262;7.066;2022-08-18T01:38:52;17.30;99.90
24162;DHT22;12318;51.262;7.066;2022-08-18T01:41:20;17.30;99.90
24162;DHT22;12318;51.262;7.066;2022-08-18T01:43:47;17.30;99.90
24162;DHT22;12318;51.262;7.066;2022-08-18T01:46:17;17.40;99.90
24162;DHT22;12318;51.262;7.066;2022-08-18T01:48:44;17.40;99.90
24162;DHT22;12318;51.262;7.066;2022-08-18T01:51:10;17.50;99.90
24162;DHT22;12318;51.262;7.066;2022-08-18T01:53:38;17.50;99.90
24162;DHT22;12318;51.262;7.066;2022-08-18T01:56:05;17.50;99.90
24162;DHT22;12318;51.262;7.066;2022-08-18T01:58:32;17.50;99.90
24162;DHT22;12318;51.262;7.066;2022-08-18T02:00:59;17.60;99.90
24162;DHT22;12318;51.262;7.066;2022-08-18T02:03:36;17.50;99.90
24162;DHT22;12318;51.262;7.066;2022-08-18T02:06:05;17.30;99.90
24162;DHT22;12318;51.262;7.066;2022-08-18T02:08:32;17.40;99.90
24162;DHT22;12318;51.262;7.066;2022-08-18T02:10:58;17.40;99.90
24162;DHT22;12318;51.262;7.066;2022-08-18T02:13:25;17.30;99.90
24162;DHT22;12318;51.262;7.066;2022-08-18T02:15:51;17.20;99.90
24162;DHT22;12318;51.262;7.066;2022-08-18T02:18:24;16.90;99.90
24162;DHT22;12318;51.262;7.066;2022-08-18T02:20:52;16.70;99.90
24162;DHT22;12318;51.262;7.066;2022-08-18T02:23:18;16.50;99.90
24162;DHT22;12318;51.262;7.066;2022-08-18T02:25:44;16.50;99.90
24162;DHT22;12318;51.262;7.066;2022-08-18T02:28:10;16.70;99.90
24162;DHT22;12318;51.262;7.066;2022-08-18T02:30:36;16.70;99.90
24162;DHT22;12318;51.262;7.066;2022-08-18T02:33:06;16.80;99.90
24162;DHT22;12318;51.262;7.066;2022-08-18T02:35:33;16.90;99.90
24162;DHT22;12318;51.262;7.066;2022-08-18T02:38:00;17.00;99.90
24162;DHT22;12318;51.262;7.066;2022-08-18T02:40:25;17.00;99.90
24162;DHT22;12318;51.262;7.066;2022-08-18T02:42:51;17.00;99.90
24162;DHT22;12318;51.262;7.066;2022-08-18T02:45:17;17.00;99.90
24162;DHT22;12318;51.262;7.066;2022-08-18T02:47:44;17.10;99.90
24162;DHT22;12318;51.262;7.066;2022-08-18T02:50:11;17.10;99.90
24162;DHT22;12318;51.262;7.066;2022-08-18T02:52:37;17.30;99.90
24162;DHT22;12318;51.262;7.066;2022-08-18T02:55:03;17.40;99.90
24162;DHT22;12318;51.262;7.066;2022-08-18T02:57:30;17.40;99.90
24162;DHT22;12318;51.262;7.066;2022-08-18T02:59:56;17.50;99.90
24162;DHT22;12318;51.262;7.066;2022-08-18T03:02:22;17.40;99.90
24162;DHT22;12318;51.262;7.066;2022-08-18T03:04:48;17.50;99.90
24162;DHT22;12318;51.262;7.066;2022-08-18T03:07:15;17.50;99.90
24162;DHT22;12318;51.262;7.066;2022-08-18T03:09:42;17.60;99.90
24162;DHT22;12318;51.262;7.066;2022-08-18T03:12:08;17.70;99.90
24162;DHT22;12318;51.262;7.066;2022-08-18T03:14:36;17.80;99.90
24162;DHT22;12318;51.262;7.066;2022-08-18T03:17:06;17.70;99.90
24162;DHT22;12318;51.262;7.066;2022-08-18T03:19:33;17.70;99.90
24162;DHT22;12318;51.262;7.066;2022-08-18T03:21:59;17.70;99.90
24162;DHT22;12318;51.262;7.066;2022-08-18T03:24:29;17.70;99.90
24162;DHT22;12318;51.262;7.066;2022-08-18T03:26:55;17.70;99.90
24162;DHT22;12318;51.262;7.066;2022-08-18T03:29:22;17.80;99.90
24162;DHT22;12318;51.262;7.066;2022-08-18T03:31:48;17.80;99.90
24162;DHT22;12318;51.262;7.066;2022-08-18T03:34:17;17.70;99.90
24162;DHT22;12318;51.262;7.066;2022-08-18T03:36:45;17.70;99.90
24162;DHT22;12318;51.262;7.066;2022-08-18T03:39:12;17.70;99.90
24162;DHT22;12318;51.262;7.066;2022-08-18T03:41:41;17.80;99.90
24162;DHT22;12318;51.262;7.066;2022-08-18T03:44:12;17.80;99.90
24162;DHT22;12318;51.262;7.066;2022-08-18T03:46:43;17.80;99.90
24162;DHT22;12318;51.262;7.066;2022-08-18T03:49:09;17.80;99.90
24162;DHT22;12318;51.262;7.066;2022-08-18T03:51:36;17.80;99.90
24162;DHT22;12318;51.262;7.066;2022-08-18T03:54:03;17.80;99.90
24162;DHT22;12318;51.262;7.066;2022-08-18T03:56:37;17.90;99.90
24162;DHT22;12318;51.262;7.066;2022-08-18T03:59:06;17.90;99.90
24162;DHT22;12318;51.262;7.066;2022-08-18T04:01:36;18.00;99.90
24162;DHT22;12318;51.262;7.066;2022-08-18T04:04:09;18.10;99.90
24162;DHT22;12318;51.262;7.066;2022-08-18T04:06:39;18.10;99.90
24162;DHT22;12318;51.262;7.066;2022-08-18T04:09:07;18.00;99.90
24162;DHT22;12318;51.262;7.066;2022-08-18T04:11:35;17.80;99.90
24162;DHT22;12318;51.262;7.066;2022-08-18T04:14:02;17.70;99.90
24162;DHT22;12318;51.262;7.066;2022-08-18T04:16:29;17.60;99.90
24162;DHT22;12318;51.262;7.066;2022-08-18T04:18:57;17.50;99.90
24162;DHT22;12318;51.262;7.066;2022-08-18T04:21:26;17.50;99.90
24162;DHT22;12318;51.262;7.066;2022-08-18T04:23:52;17.50;99.90
24162;DHT22;12318;51.262;7.066;2022-08-18T04:26:17;17.50;99.90
24162;DHT22;12318;51.262;7.066;2022-08-18T04:28:44;17.40;99.90
24162;DHT22;12318;51.262;7.066;2022-08-18T04:31:13;17.30;99.90
24162;DHT22;12318;51.262;7.066;2022-08-18T04:33:40;17.50;99.90
24162;DHT22;12318;51.262;7.066;2022-08-18T04:36:13;17.40;99.90
24162;DHT22;12318;51.262;7.066;2022-08-18T04:38:40;17.50;99.90
24162;DHT22;12318;51.262;7.066;2022-08-18T04:41:11;17.50;99.90
24162;DHT22;12318;51.262;7.066;2022-08-18T04:43:38;17.40;99.90
24162;DHT22;12318;51.262;7.066;2022-08-18T04:46:04;17.40;99.90
24162;DHT22;12318;51.262;7.066;2022-08-18T04:48:39;17.50;99.90
24162;DHT22;12318;51.262;7.066;2022-08-18T04:51:12;17.50;99.90
24162;DHT22;12318;51.262;7.066;2022-08-18T04:53:39;17.50;99.90
24162;DHT22;12318;51.262;7.066;2022-08-18T04:56:18;17.50;99.90
24162;DHT22;12318;51.262;7.066;2022-08-18T04:58:47;17.50;99.90
24162;DHT22;12318;51.262;7.066;2022-08-18T05:01:21;17.50;99.90
24162;DHT22;12318;51.262;7.066;2022-08-18T05:03:48;17.60;99.90
24162;DHT22;12318;51.262;7.066;2022-08-18T05:06:15;17.50;99.90
24162;DHT22;12318;51.262;7.066;2022-08-18T05:08:40;17.50;99.90
24162;DHT22;12318;51.262;7.066;2022-08-18T05:11:06;17.40;99.90
24162;DHT22;12318;51.262;7.066;2022-08-18T05:13:34;17.50;99.90
24162;DHT22;12318;51.262;7.066;2022-08-18T05:16:01;17.40;99.90
24162;DHT22;12318;51.262;7.066;2022-08-18T05:18:37;17.60;99.90
24162;DHT22;12318;51.262;7.066;2022-08-18T05:21:06;17.50;99.90
24162;DHT22;12318;51.262;7.066;2022-08-18T05:23:43;17.60;99.90
24162;DHT22;12318;51.262;7.066;2022-08-18T05:26:10;17.60;99.90
24162;DHT22;12318;51.262;7.066;2022-08-18T05:28:39;17.50;99.90
24162;DHT22;12318;51.262;7.066;2022-08-18T05:31:10;17.60;99.90
24162;DHT22;12318;51.262;7.066;2022-08-18T05:33:37;17.80;99.90
24162;DHT22;12318;51.262;7.066;2022-08-18T05:41:50;17.50;99.90
24162;DHT22;12318;51.262;7.066;2022-08-18T05:44:38;17.50;99.90
24162;DHT22;12318;51.262;7.066;2022-08-18T05:49:37;17.60;99.90
24162;DHT22;12318;51.262;7.066;2022-08-18T05:52:07;17.50;99.90
24162;DHT22;12318;51.262;7.066;2022-08-18T05:54:42;17.40;99.90
24162;DHT22;12318;51.262;7.066;2022-08-18T05:57:33;17.50;99.90
24162;DHT22;12318;51.262;7.066;2022-08-18T06:00:04;17.50;99.90
24162;DHT22;12318;51.262;7.066;2022-08-18T06:02:37;17.50;99.90
24162;DHT22;12318;51.262;7.066;2022-08-18T06:05:09;17.50;99.90
24162;DHT22;12318;51.262;7.066;2022-08-18T06:07:56;17.60;99.90
24162;DHT22;12318;51.262;7.066;2022-08-18T06:10:23;17.60;99.90
24162;DHT22;12318;51.262;7.066;2022-08-18T06:12:52;17.60;99.90
24162;DHT22;12318;51.262;7.066;2022-08-18T06:15:36;17.50;99.90
24162;DHT22;12318;51.262;7.066;2022-08-18T06:26:24;17.60;99.90
24162;DHT22;12318;51.262;7.066;2022-08-18T06:31:58;17.60;99.90
24162;DHT22;12318;51.262;7.066;2022-08-18T06:37:32;17.70;99.90
24162;DHT22;12318;51.262;7.066;2022-08-18T06:39:58;17.70;99.90
24162;DHT22;12318;51.262;7.066;2022-08-18T06:42:26;17.70;99.90
24162;DHT22;12318;51.262;7.066;2022-08-18T06:45:07;17.80;99.90
24162;DHT22;12318;51.262;7.066;2022-08-18T06:47:50;17.90;99.90
24162;DHT22;12318;51.262;7.066;2022-08-18T06:50:23;18.00;99.90
24162;DHT22;12318;51.262;7.066;2022-08-18T06:52:57;18.10;99.90
24162;DHT22;12318;51.262;7.066;2022-08-18T06:55:55;18.00;99.90
24162;DHT22;12318;51.262;7.066;2022-08-18T06:58:28;18.10;99.90
24162;DHT22;12318;51.262;7.066;2022-08-18T07:01:00;18.30;99.90
24162;DHT22;12318;51.262;7.066;2022-08-18T07:08:48;18.40;99.90
24162;DHT22;12318;51.262;7.066;2022-08-18T07:11:30;18.20;99.90
24162;DHT22;12318;51.262;7.066;2022-08-18T07:14:20;18.30;99.90
24162;DHT22;12318;51.262;7.066;2022-08-18T07:16:47;18.30;99.90
24162;DHT22;12318;51.262;7.066;2022-08-18T07:19:18;18.30;99.90
24162;DHT22;12318;51.262;7.066;2022-08-18T07:22:03;18.30;99.90
24162;DHT22;12318;51.262;7.066;2022-08-18T07:24:33;18.20;99.90
24162;DHT22;12318;51.262;7.066;2022-08-18T07:27:04;18.30;99.90
24162;DHT22;12318;51.262;7.066;2022-08-18T07:29:34;18.40;99.90
24162;DHT22;12318;51.262;7.066;2022-08-18T07:32:14;18.40;99.90
24162;DHT22;12318;51.262;7.066;2022-08-18T07:34:46;18.40;99.90
24162;DHT22;12318;51.262;7.066;2022-08-18T07:37:20;18.40;99.90
24162;DHT22;12318;51.262;7.066;2022-08-18T07:40:03;18.50;99.90
24162;DHT22;12318;51.262;7.066;2022-08-18T07:45:40;18.60;99.90
24162;DHT22;12318;51.262;7.066;2022-08-18T07:48:10;18.80;99.90
24162;DHT22;12318;51.262;7.066;2022-08-18T07:51:24;18.70;99.90
24162;DHT22;12318;51.262;7.066;2022-08-18T07:53:59;18.60;99.90
24162;DHT22;12318;51.262;7.066;2022-08-18T08:07:29;18.60;99.90
24162;DHT22;12318;51.262;7.066;2022-08-18T08:12:56;18.60;99.90
24162;DHT22;12318;51.262;7.066;2022-08-18T08:15:50;18.80;99.90
24162;DHT22;12318;51.262;7.066;2022-08-18T08:20:56;18.70;99.90
24162;DHT22;12318;51.262;7.066;2022-08-18T08:23:34;18.80;99.90
24162;DHT22;12318;51.262;7.066;2022-08-18T08:26:35;18.80;99.90
24162;DHT22;12318;51.262;7.066;2022-08-18T08:34:53;18.80;99.90
24162;DHT22;12318;51.262;7.066;2022-08-18T08:45:38;18.90;99.90
24162;DHT22;12318;51.262;7.066;2022-08-18T08:48:31;18.90;99.90
24162;DHT22;12318;51.262;7.066;2022-08-18T08:51:42;18.90;99.90
24162;DHT22;12318;51.262;7.066;2022-08-18T08:57:02;19.20;99.90
24162;DHT22;12318;51.262;7.066;2022-08-18T08:59:29;19.30;99.90
24162;DHT22;12318;51.262;7.066;2022-08-18T09:04:54;19.70;99.90
24162;DHT22;12318;51.262;7.066;2022-08-18T09:10:29;19.40;99.90
24162;DHT22;12318;51.262;7.066;2022-08-18T09:13:12;19.60;99.90
24162;DHT22;12318;51.262;7.066;2022-08-18T09:16:00;19.50;99.90
24162;DHT22;12318;51.262;7.066;2022-08-18T09:24:23;20.00;99.90
24162;DHT22;12318;51.262;7.066;2022-08-18T09:27:12;20.20;99.90
24162;DHT22;12318;51.262;7.066;2022-08-18T09:29:57;20.40;99.90
24162;DHT22;12318;51.262;7.066;2022-08-18T09:37:25;20.80;99.90
24162;DHT22;12318;51.262;7.066;2022-08-18T09:40:08;21.00;99.90
24162;DHT22;12318;51.262;7.066;2022-08-18T09:43:04;21.30;99.90
24162;DHT22;12318;51.262;7.066;2022-08-18T10:02:05;21.50;99.90
24162;DHT22;12318;51.262;7.066;2022-08-18T10:04:36;21.80;99.90
24162;DHT22;12318;51.262;7.066;2022-08-18T10:07:29;21.70;99.90
24162;DHT22;12318;51.262;7.066;2022-08-18T10:10:24;21.90;99.90
24162;DHT22;12318;51.262;7.066;2022-08-18T10:21:23;21.90;99.90
24162;DHT22;12318;51.262;7.066;2022-08-18T10:31:28;21.70;99.90
24162;DHT22;12318;51.262;7.066;2022-08-18T10:34:11;21.50;99.90
24162;DHT22;12318;51.262;7.066;2022-08-18T10:39:41;21.60;99.90
24162;DHT22;12318;51.262;7.066;2022-08-18T10:42:18;21.80;99.90
24162;DHT22;12318;51.262;7.066;2022-08-18T10:44:48;22.20;99.90
24162;DHT22;12318;51.262;7.066;2022-08-18T10:47:33;22.40;99.90
24162;DHT22;12318;51.262;7.066;2022-08-18T10:50:04;22.60;99.90
24162;DHT22;12318;51.262;7.066;2022-08-18T10:58:17;22.30;99.90
24162;DHT22;12318;51.262;7.066;2022-08-18T11:06:22;22.20;99.90
24162;DHT22;12318;51.262;7.066;2022-08-18T11:08:56;22.20;99.90
24162;DHT22;12318;51.262;7.066;2022-08-18T11:11:39;22.30;99.90
24162;DHT22;12318;51.262;7.066;2022-08-18T11:19:18;22.80;99.90
24162;DHT22;12318;51.262;7.066;2022-08-18T11:21:46;22.80;99.90
24162;DHT22;12318;51.262;7.066;2022-08-18T11:34:51;23.00;99.90
24162;DHT22;12318;51.262;7.066;2022-08-18T11:40:19;23.10;99.90
24162;DHT22;12318;51.262;7.066;2022-08-18T11:45:28;23.10;99.90
24162;DHT22;12318;51.262;7.066;2022-08-18T12:03:55;23.00;99.90
24162;DHT22;12318;51.262;7.066;2022-08-18T12:06:28;23.10;99.90
24162;DHT22;12318;51.262;7.066;2022-08-18T12:08:59;23.30;99.90
24162;DHT22;12318;51.262;7.066;2022-08-18T12:11:34;23.30;99.90
24162;DHT22;12318;51.262;7.066;2022-08-18T12:14:06;23.30;99.90
24162;DHT22;12318;51.262;7.066;2022-08-18T12:16:37;23.30;99.90
24162;DHT22;12318;51.262;7.066;2022-08-18T12:19:06;23.10;99.90
24162;DHT22;12318;51.262;7.066;2022-08-18T12:21:33;23.00;99.90
24162;DHT22;12318;51.262;7.066;2022-08-18T12:24:02;23.00;99.90
24162;DHT22;12318;51.262;7.066;2022-08-18T12:26:28;23.10;99.90
24162;DHT22;12318;51.262;7.066;2022-08-18T12:28:53;23.10;99.90
24162;DHT22;12318;51.262;7.066;2022-08-18T12:31:19;23.10;99.90
24162;DHT22;12318;51.262;7.066;2022-08-18T12:33:44;23.00;99.90
24162;DHT22;12318;51.262;7.066;2022-08-18T12:36:10;22.90;99.90
24162;DHT22;12318;51.262;7.066;2022-08-18T12:38:36;22.80;99.90
24162;DHT22;12318;51.262;7.066;2022-08-18T12:41:03;23.00;99.90
24162;DHT22;12318;51.262;7.066;2022-08-18T12:43:30;23.00;99.90
24162;DHT22;12318;51.262;7.066;2022-08-18T12:45:57;23.20;99.90
24162;DHT22;12318;51.262;7.066;2022-08-18T12:48:25;23.30;99.90
24162;DHT22;12318;51.262;7.066;2022-08-18T12:50:51;22.90;99.90
24162;DHT22;12318;51.262;7.066;2022-08-18T12:53:17;22.80;99.90
24162;DHT22;12318;51.262;7.066;2022-08-18T12:55:43;23.00;99.90
24162;DHT22;12318;51.262;7.066;2022-08-18T12:58:08;23.20;99.90
24162;DHT22;12318;51.262;7.066;2022-08-18T13:00:35;23.20;99.90
24162;DHT22;12318;51.262;7.066;2022-08-18T13:03:01;23.30;99.90
24162;DHT22;12318;51.262;7.066;2022-08-18T13:05:27;23.20;99.90
24162;DHT22;12318;51.262;7.066;2022-08-18T13:07:55;23.00;99.90
24162;DHT22;12318;51.262;7.066;2022-08-18T13:10:22;23.10;99.90
24162;DHT22;12318;51.262;7.066;2022-08-18T13:12:48;23.50;99.90
24162;DHT22;12318;51.262;7.066;2022-08-18T13:15:14;23.70;99.90
24162;DHT22;12318;51.262;7.066;2022-08-18T13:17:39;23.60;99.90
24162;DHT22;12318;51.262;7.066;2022-08-18T13:20:15;23.30;99.90
24162;DHT22;12318;51.262;7.066;2022-08-18T13:22:41;23.60;99.90
24162;DHT22;12318;51.262;7.066;2022-08-18T13:25:10;23.70;99.90
24162;DHT22;12318;51.262;7.066;2022-08-18T13:27:37;23.90;99.90
24162;DHT22;12318;51.262;7.066;2022-08-18T13:30:14;23.80;99.90
24162;DHT22;12318;51.262;7.066;2022-08-18T13:32:40;23.70;99.90
24162;DHT22;12318;51.262;7.066;2022-08-18T13:35:07;23.90;99.90
24162;DHT22;12318;51.262;7.066;2022-08-18T13:37:33;24.00;99.90
24162;DHT22;12318;51.262;7.066;2022-08-18T13:39:59;23.60;99.90
24162;DHT22;12318;51.262;7.066;2022-08-18T13:42:26;23.70;99.90
24162;DHT22;12318;51.262;7.066;2022-08-18T13:44:58;23.80;99.90
24162;DHT22;12318;51.262;7.066;2022-08-18T13:47:25;23.60;99.90
24162;DHT22;12318;51.262;7.066;2022-08-18T13:49:56;23.80;99.90
24162;DHT22;12318;51.262;7.066;2022-08-18T13:52:22;23.60;99.90
24162;DHT22;12318;51.262;7.066;2022-08-18T13:54:48;23.80;99.90
24162;DHT22;12318;51.262;7.066;2022-08-18T13:57:13;23.80;99.90
24162;DHT22;12318;51.262;7.066;2022-08-18T13:59:39;23.80;99.90
24162;DHT22;12318;51.262;7.066;2022-08-18T14:02:08;23.70;99.90
24162;DHT22;12318;51.262;7.066;2022-08-18T14:04:35;23.80;99.90
24162;DHT22;12318;51.262;7.066;2022-08-18T14:07:00;24.00;99.90
24162;DHT22;12318;51.262;7.066;2022-08-18T14:09:28;24.00;99.90
24162;DHT22;12318;51.262;7.066;2022-08-18T14:11:54;24.00;99.90
24162;DHT22;12318;51.262;7.066;2022-08-18T14:14:20;24.10;99.90
24162;DHT22;12318;51.262;7.066;2022-08-18T14:16:46;24.30;99.90
24162;DHT22;12318;51.262;7.066;2022-08-18T14:19:12;24.30;99.90
24162;DHT22;12318;51.262;7.066;2022-08-18T14:21:56;24.00;99.90
24162;DHT22;12318;51.262;7.066;2022-08-18T14:24:42;24.20;99.90
24162;DHT22;12318;51.262;7.066;2022-08-18T14:27:32;24.20;99.90
24162;DHT22;12318;51.262;7.066;2022-08-18T14:30:00;24.20;99.90
24162;DHT22;12318;51.262;7.066;2022-08-18T14:32:26;24.40;99.90
24162;DHT22;12318;51.262;7.066;2022-08-18T14:34:58;24.70;99.90
24162;DHT22;12318;51.262;7.066;2022-08-18T14:37:25;24.50;99.90
24162;DHT22;12318;51.262;7.066;2022-08-18T14:39:51;24.40;99.90
24162;DHT22;12318;51.262;7.066;2022-08-18T14:42:17;24.30;99.90
24162;DHT22;12318;51.262;7.066;2022-08-18T14:44:46;24.20;99.90
24162;DHT22;12318;51.262;7.066;2022-08-18T14:47:12;24.20;99.90
24162;DHT22;12318;51.262;7.066;2022-08-18T14:49:38;24.10;99.90
24162;DHT22;12318;51.262;7.066;2022-08-18T14:52:05;24.20;99.90
24162;DHT22;12318;51.262;7.066;2022-08-18T14:54:31;24.30;99.90
24162;DHT22;12318;51.262;7.066;2022-08-18T14:56:58;24.50;99.90
24162;DHT22;12318;51.262;7.066;2022-08-18T14:59:26;24.30;99.90
24162;DHT22;12318;51.262;7.066;2022-08-18T15:01:53;24.30;99.90
24162;DHT22;12318;51.262;7.066;2022-08-18T15:04:20;24.40;99.90
24162;DHT22;12318;51.262;7.066;2022-08-18T15:06:47;24.50;99.90
24162;DHT22;12318;51.262;7.066;2022-08-18T15:09:13;24.00;99.90
24162;DHT22;12318;51.262;7.066;2022-08-18T15:11:39;24.00;99.90
24162;DHT22;12318;51.262;7.066;2022-08-18T15:14:33;24.20;99.90
24162;DHT22;12318;51.262;7.066;2022-08-18T15:17:03;24.40;99.90
24162;DHT22;12318;51.262;7.066;2022-08-18T15:19:29;24.60;99.90
24162;DHT22;12318;51.262;7.066;2022-08-18T15:21:55;24.10;99.90
24162;DHT22;12318;51.262;7.066;2022-08-18T15:24:41;24.00;99.90
24162;DHT22;12318;51.262;7.066;2022-08-18T15:27:30;24.20;99.90
24162;DHT22;12318;51.262;7.066;2022-08-18T15:29:57;24.30;99.90
24162;DHT22;12318;51.262;7.066;2022-08-18T15:32:25;24.40;99.90
24162;DHT22;12318;51.262;7.066;2022-08-18T15:34:50;24.60;99.90
24162;DHT22;12318;51.262;7.066;2022-08-18T15:37:17;24.80;99.90
24162;DHT22;12318;51.262;7.066;2022-08-18T15:39:42;24.90;99.90
24162;DHT22;12318;51.262;7.066;2022-08-18T15:42:10;25.00;99.90
24162;DHT22;12318;51.262;7.066;2022-08-18T15:44:38;24.90;99.90
24162;DHT22;12318;51.262;7.066;2022-08-18T15:47:04;24.60;99.90
24162;DHT22;12318;51.262;7.066;2022-08-18T15:49:30;24.90;99.90
24162;DHT22;12318;51.262;7.066;2022-08-18T15:51:57;24.60;99.90
24162;DHT22;12318;51.262;7.066;2022-08-18T15:54:40;24.40;99.90
24162;DHT22;12318;51.262;7.066;2022-08-18T15:57:05;24.60;99.90
24162;DHT22;12318;51.262;7.066;2022-08-18T15:59:33;24.90;99.90
24162;DHT22;12318;51.262;7.066;2022-08-18T16:01:59;25.30;99.90
24162;DHT22;12318;51.262;7.066;2022-08-18T16:04:27;25.50;99.90
24162;DHT22;12318;51.262;7.066;2022-08-18T16:06:53;25.20;99.90
24162;DHT22;12318;51.262;7.066;2022-08-18T16:09:20;25.00;99.90
24162;DHT22;12318;51.262;7.066;2022-08-18T16:11:46;25.20;99.90
24162;DHT22;12318;51.262;7.066;2022-08-18T16:14:14;25.30;99.90
24162;DHT22;12318;51.262;7.066;2022-08-18T16:16:40;25.50;99.90
24162;DHT22;12318;51.262;7.066;2022-08-18T16:19:06;25.00;99.90
24162;DHT22;12318;51.262;7.066;2022-08-18T16:21:32;25.00;99.90
24162;DHT22;12318;51.262;7.066;2022-08-18T16:23:58;25.10;99.90
24162;DHT22;12318;51.262;7.066;2022-08-18T16:26:24;25.20;99.90
24162;DHT22;12318;51.262;7.066;2022-08-18T16:28:51;25.40;99.90
24162;DHT22;12318;51.262;7.066;2022-08-18T16:31:19;25.60;99.90
24162;DHT22;12318;51.262;7.066;2022-08-18T16:34:01;25.40;99.90
24162;DHT22;12318;51.262;7.066;2022-08-18T16:36:27;25.00;99.90
24162;DHT22;12318;51.262;7.066;2022-08-18T16:38:54;24.70;99.90
24162;DHT22;12318;51.262;7.066;2022-08-18T16:41:20;24.60;99.90
24162;DHT22;12318;51.262;7.066;2022-08-18T16:43:46;24.80;99.90
24162;DHT22;12318;51.262;7.066;2022-08-18T16:46:20;25.00;99.90
24162;DHT22;12318;51.262;7.066;2022-08-18T16:48:49;25.00;99.90
24162;DHT22;12318;51.262;7.066;2022-08-18T16:51:17;25.10;99.90
24162;DHT22;12318;51.262;7.066;2022-08-18T16:53:49;24.90;99.90
24162;DHT22;12318;51.262;7.066;2022-08-18T16:56:22;24.70;99.90
24162;DHT22;12318;51.262;7.066;2022-08-18T16:58:48;24.40;99.90
24162;DHT22;12318;51.262;7.066;2022-08-18T17:01:33;24.30;99.90
24162;DHT22;12318;51.262;7.066;2022-08-18T17:04:20;24.20;99.90
24162;DHT22;12318;51.262;7.066;2022-08-18T17:06:48;24.10;99.90
24162;DHT22;12318;51.262;7.066;2022-08-18T17:09:14;24.20;99.90
24162;DHT22;12318;51.262;7.066;2022-08-18T17:11:41;24.20;99.90
24162;DHT22;12318;51.262;7.066;2022-08-18T17:14:09;24.30;99.90
24162;DHT22;12318;51.262;7.066;2022-08-18T17:16:36;24.30;99.90
24162;DHT22;12318;51.262;7.066;2022-08-18T17:19:03;24.50;99.90
24162;DHT22;12318;51.262;7.066;2022-08-18T17:21:31;24.60;99.90
24162;DHT22;12318;51.262;7.066;2022-08-18T17:23:59;24.30;99.90
24162;DHT22;12318;51.262;7.066;2022-08-18T17:26:38;24.20;99.90
24162;DHT22;12318;51.262;7.066;2022-08-18T17:29:17;24.20;99.90
24162;DHT22;12318;51.262;7.066;2022-08-18T17:31:49;24.20;99.90
24162;DHT22;12318;51.262;7.066;2022-08-18T17:34:17;24.20;99.90
24162;DHT22;12318;51.262;7.066;2022-08-18T17:36:52;24.30;99.90
24162;DHT22;12318;51.262;7.066;2022-08-18T17:39:26;24.40;99.90
24162;DHT22;12318;51.262;7.066;2022-08-18T17:41:53;24.50;99.90
24162;DHT22;12318;51.262;7.066;2022-08-18T17:45:03;24.40;99.90
24162;DHT22;12318;51.262;7.066;2022-08-18T17:47:34;24.40;99.90
24162;DHT22;12318;51.262;7.066;2022-08-18T17:50:04;24.40;99.90
24162;DHT22;12318;51.262;7.066;2022-08-18T17:52:52;24.30;99.90
24162;DHT22;12318;51.262;7.066;2022-08-18T17:55:30;24.40;99.90
24162;DHT22;12318;51.262;7.066;2022-08-18T17:58:10;24.50;99.90
24162;DHT22;12318;51.262;7.066;2022-08-18T18:00:39;24.60;99.90
24162;DHT22;12318;51.262;7.066;2022-08-18T18:03:06;24.30;99.90
24162;DHT22;12318;51.262;7.066;2022-08-18T18:05:45;24.40;99.90
24162;DHT22;12318;51.262;7.066;2022-08-18T18:08:12;24.40;99.90
24162;DHT22;12318;51.262;7.066;2022-08-18T18:10:41;24.40;99.90
24162;DHT22;12318;51.262;7.066;2022-08-18T18:13:21;24.50;99.90
24162;DHT22;12318;51.262;7.066;2022-08-18T18:15:57;24.40;99.90
24162;DHT22;12318;51.262;7.066;2022-08-18T18:18:38;24.40;99.90
24162;DHT22;12318;51.262;7.066;2022-08-18T18:23:48;24.30;99.90
24162;DHT22;12318;51.262;7.066;2022-08-18T18:26:23;24.30;99.90
24162;DHT22;12318;51.262;7.066;2022-08-18T18:31:35;24.40;99.90
24162;DHT22;12318;51.262;7.066;2022-08-18T18:34:04;24.00;99.90
24162;DHT22;12318;51.262;7.066;2022-08-18T18:36:37;23.90;99.90
24162;DHT22;12318;51.262;7.066;2022-08-18T18:39:17;23.90;99.90
24162;DHT22;12318;51.262;7.066;2022-08-18T18:41:48;23.70;99.90
24162;DHT22;12318;51.262;7.066;2022-08-18T18:44:27;23.60;99.90
24162;DHT22;12318;51.262;7.066;2022-08-18T18:47:07;23.40;99.90
24162;DHT22;12318;51.262;7.066;2022-08-18T18:49:51;23.40;99.90
24162;DHT22;12318;51.262;7.066;2022-08-18T18:53:21;23.40;99.90
24162;DHT22;12318;51.262;7.066;2022-08-18T18:55:29;23.30;99.90
24162;DHT22;12318;51.262;7.066;2022-08-18T18:58:34;23.10;99.90
24162;DHT22;12318;51.262;7.066;2022-08-18T19:01:04;23.00;99.90